Airfield :
LOGIN :

Register | Disclaimer

   EN    FR    IT 

 










Legend :    VFR   Marginal VFR   IFR   Intensive IFR   Very Intensive IFR
Visi :
Ceiling :
>= 8 km
>= 3000ft
5 to 8 km
1000 to 3000 ft
1500m to 5 km
500 to 1000 ft
800 to 1500m
200 to 500 ft
< 800m
< 200 ft
Symbols :   Thunderstorms  Fog  Heavy snow  Heavy precipitations  Wind > 20 kt
SIGMETs :     Misc.  Thunderstorms  Icing  Turbulence  Mountain Waves  Volcanic Ashes






- Airport Elevation : 353 ft
- IATA code : ZAG


LDZA - Zagreb Pleso

CURRENT METAR :
  • 280600Z 07011KT 020V130 CAVOK 14/09 Q1016 NOSIG

EXPIRED METARs :
  • 280530Z VRB01KT 9999 -SHRA VCTS FEW050CB 15/12 Q1016 BECMG NSW FEW045
  • 280500Z 08004KT 360V120 CAVOK 14/12 Q1015 TEMPO TSRA FEW035CB BKN040
  • 280430Z 07003KT 360V120 9999 -RA NSC 15/12 Q1016 TEMPO RA
  • 280400Z 07007KT 030V120 9999 -RA FEW040TCU 15/12 Q1015 RETSRA TEMPO TSRA FEW035CB
  • 280330Z 07005KT 010V110 9999 -RA VCTS FEW040CB 16/12 Q1015 TEMPO TSRA

TAF TAF LDZA
Valid from the 28 at 06:00 until the 29 at 06:00 UTC


280525Z 2806/2906 04005KT 9999 BKN040 TX16/2814Z TN11/2904Z
PROB30
TEMPO 2806/2808 TSRA FEW035CB BKN040
PROB40
TEMPO 2808/2818 RA
TEMPO 2902/2906 4000 RA
ATIS : +385 1 6-259-214



MET'MAP, your aeronautical weather chart ! - Copyright ORBIFLY December 2007 - Disclaimer

ORBIFLY MET'MAP TEAM :

Programming & Development : Alexandra Zaïnal
Original concept : Baudouin d'Aumeries
Technical & hardware support : Manuel Goepfert
Assistance : Marc-Olivier Méhu

Contact : metmap@orbifly.com




SOURCES & CREDITS :

   NOAA